sensor_id;sensor_type;location;lat;lon;timestamp;P1;durP1;ratioP1;P2;durP2;ratioP2
79616;SDS011;69097;52.132;5.422;2023-12-07T00:02:09;10.27;;;4.85;;
79616;SDS011;69097;52.132;5.422;2023-12-07T00:04:36;10.88;;;5.05;;
79616;SDS011;69097;52.132;5.422;2023-12-07T00:07:02;10.02;;;5.32;;
79616;SDS011;69097;52.132;5.422;2023-12-07T00:09:29;13.48;;;5.93;;
79616;SDS011;69097;52.132;5.422;2023-12-07T00:11:55;12.35;;;5.80;;
79616;SDS011;69097;52.132;5.422;2023-12-07T00:14:22;18.05;;;6.38;;
79616;SDS011;69097;52.132;5.422;2023-12-07T00:16:48;18.95;;;7.45;;
79616;SDS011;69097;52.132;5.422;2023-12-07T00:19:15;20.98;;;8.65;;
79616;SDS011;69097;52.132;5.422;2023-12-07T00:21:41;16.70;;;6.75;;
79616;SDS011;69097;52.132;5.422;2023-12-07T00:24:08;18.08;;;7.43;;
79616;SDS011;69097;52.132;5.422;2023-12-07T00:26:34;16.33;;;6.07;;
79616;SDS011;69097;52.132;5.422;2023-12-07T00:29:01;20.15;;;6.80;;
79616;SDS011;69097;52.132;5.422;2023-12-07T00:31:27;14.20;;;5.88;;
79616;SDS011;69097;52.132;5.422;2023-12-07T00:33:54;17.55;;;6.38;;
79616;SDS011;69097;52.132;5.422;2023-12-07T00:36:20;16.17;;;5.57;;
79616;SDS011;69097;52.132;5.422;2023-12-07T00:38:47;11.60;;;5.25;;
79616;SDS011;69097;52.132;5.422;2023-12-07T00:41:14;13.35;;;5.15;;
79616;SDS011;69097;52.132;5.422;2023-12-07T00:43:40;14.27;;;5.55;;
79616;SDS011;69097;52.132;5.422;2023-12-07T00:46:07;13.50;;;6.32;;
79616;SDS011;69097;52.132;5.422;2023-12-07T00:48:34;12.13;;;4.90;;
79616;SDS011;69097;52.132;5.422;2023-12-07T00:51:01;11.32;;;5.35;;
79616;SDS011;69097;52.132;5.422;2023-12-07T00:53:27;11.55;;;5.13;;
79616;SDS011;69097;52.132;5.422;2023-12-07T00:55:54;10.80;;;5.05;;
79616;SDS011;69097;52.132;5.422;2023-12-07T00:58:20;9.80;;;4.65;;
79616;SDS011;69097;52.132;5.422;2023-12-07T01:00:46;9.18;;;4.13;;
79616;SDS011;69097;52.132;5.422;2023-12-07T01:03:13;9.88;;;4.40;;
79616;SDS011;69097;52.132;5.422;2023-12-07T01:05:40;12.13;;;4.72;;
79616;SDS011;69097;52.132;5.422;2023-12-07T01:08:07;9.20;;;4.82;;
79616;SDS011;69097;52.132;5.422;2023-12-07T01:10:33;10.52;;;4.47;;
79616;SDS011;69097;52.132;5.422;2023-12-07T01:13:00;9.63;;;4.57;;
79616;SDS011;69097;52.132;5.422;2023-12-07T01:15:26;10.15;;;4.65;;
79616;SDS011;69097;52.132;5.422;2023-12-07T01:17:53;11.25;;;4.82;;
79616;SDS011;69097;52.132;5.422;2023-12-07T01:20:20;9.85;;;4.60;;
79616;SDS011;69097;52.132;5.422;2023-12-07T01:22:46;12.45;;;3.95;;
79616;SDS011;69097;52.132;5.422;2023-12-07T01:25:13;10.48;;;5.57;;
79616;SDS011;69097;52.132;5.422;2023-12-07T01:27:46;9.45;;;5.15;;
79616;SDS011;69097;52.132;5.422;2023-12-07T01:30:12;10.68;;;4.93;;
79616;SDS011;69097;52.132;5.422;2023-12-07T01:32:39;9.75;;;4.20;;
79616;SDS011;69097;52.132;5.422;2023-12-07T01:35:06;11.07;;;5.00;;
79616;SDS011;69097;52.132;5.422;2023-12-07T01:37:33;12.55;;;4.45;;
79616;SDS011;69097;52.132;5.422;2023-12-07T01:39:59;10.20;;;4.80;;
79616;SDS011;69097;52.132;5.422;2023-12-07T01:42:26;11.40;;;5.25;;
79616;SDS011;69097;52.132;5.422;2023-12-07T01:44:52;12.95;;;5.28;;
79616;SDS011;69097;52.132;5.422;2023-12-07T01:47:19;10.73;;;4.97;;
79616;SDS011;69097;52.132;5.422;2023-12-07T01:49:45;11.00;;;4.88;;
79616;SDS011;69097;52.132;5.422;2023-12-07T01:52:12;10.20;;;5.40;;
79616;SDS011;69097;52.132;5.422;2023-12-07T01:54:39;12.10;;;5.75;;
79616;SDS011;69097;52.132;5.422;2023-12-07T01:57:05;9.95;;;5.25;;
79616;SDS011;69097;52.132;5.422;2023-12-07T01:59:32;13.63;;;5.35;;
79616;SDS011;69097;52.132;5.422;2023-12-07T02:01:59;13.27;;;5.75;;
79616;SDS011;69097;52.132;5.422;2023-12-07T02:04:26;11.98;;;5.03;;
79616;SDS011;69097;52.132;5.422;2023-12-07T02:06:54;12.82;;;4.35;;
79616;SDS011;69097;52.132;5.422;2023-12-07T02:09:23;10.13;;;4.50;;
79616;SDS011;69097;52.132;5.422;2023-12-07T02:11:50;9.95;;;4.53;;
79616;SDS011;69097;52.132;5.422;2023-12-07T02:14:16;10.95;;;5.00;;
79616;SDS011;69097;52.132;5.422;2023-12-07T02:22:15;9.80;;;4.40;;
79616;SDS011;69097;52.132;5.422;2023-12-07T02:24:51;10.15;;;5.07;;
79616;SDS011;69097;52.132;5.422;2023-12-07T02:30:01;13.38;;;4.43;;
79616;SDS011;69097;52.132;5.422;2023-12-07T02:32:27;12.07;;;5.05;;
79616;SDS011;69097;52.132;5.422;2023-12-07T02:34:54;12.95;;;5.30;;
79616;SDS011;69097;52.132;5.422;2023-12-07T02:37:21;13.60;;;5.72;;
79616;SDS011;69097;52.132;5.422;2023-12-07T02:39:50;13.25;;;5.53;;
79616;SDS011;69097;52.132;5.422;2023-12-07T02:42:18;10.30;;;4.68;;
79616;SDS011;69097;52.132;5.422;2023-12-07T02:44:47;12.60;;;5.03;;
79616;SDS011;69097;52.132;5.422;2023-12-07T02:47:13;13.68;;;5.22;;
79616;SDS011;69097;52.132;5.422;2023-12-07T02:49:40;14.27;;;5.35;;
79616;SDS011;69097;52.132;5.422;2023-12-07T02:52:06;10.70;;;5.05;;
79616;SDS011;69097;52.132;5.422;2023-12-07T02:54:33;10.35;;;4.50;;
79616;SDS011;69097;52.132;5.422;2023-12-07T02:56:59;9.60;;;4.88;;
79616;SDS011;69097;52.132;5.422;2023-12-07T02:59:26;9.48;;;4.35;;
79616;SDS011;69097;52.132;5.422;2023-12-07T03:01:52;10.93;;;5.35;;
79616;SDS011;69097;52.132;5.422;2023-12-07T03:04:19;11.68;;;4.60;;
79616;SDS011;69097;52.132;5.422;2023-12-07T03:06:45;10.65;;;4.72;;
79616;SDS011;69097;52.132;5.422;2023-12-07T03:09:11;10.30;;;4.65;;
79616;SDS011;69097;52.132;5.422;2023-12-07T03:11:38;12.55;;;5.95;;
79616;SDS011;69097;52.132;5.422;2023-12-07T03:14:04;11.98;;;5.28;;
79616;SDS011;69097;52.132;5.422;2023-12-07T03:16:31;11.05;;;4.72;;
79616;SDS011;69097;52.132;5.422;2023-12-07T03:18:57;12.88;;;6.30;;
79616;SDS011;69097;52.132;5.422;2023-12-07T03:21:24;11.50;;;5.88;;
79616;SDS011;69097;52.132;5.422;2023-12-07T03:23:51;10.88;;;4.80;;
79616;SDS011;69097;52.132;5.422;2023-12-07T03:26:17;14.65;;;6.30;;
79616;SDS011;69097;52.132;5.422;2023-12-07T03:28:44;11.13;;;5.55;;
79616;SDS011;69097;52.132;5.422;2023-12-07T03:31:10;14.30;;;5.70;;
79616;SDS011;69097;52.132;5.422;2023-12-07T03:33:36;14.18;;;6.20;;
79616;SDS011;69097;52.132;5.422;2023-12-07T03:36:04;11.25;;;5.13;;
79616;SDS011;69097;52.132;5.422;2023-12-07T03:38:31;14.45;;;5.22;;
79616;SDS011;69097;52.132;5.422;2023-12-07T03:40:57;14.77;;;5.13;;
79616;SDS011;69097;52.132;5.422;2023-12-07T03:43:24;11.27;;;5.35;;
79616;SDS011;69097;52.132;5.422;2023-12-07T03:45:50;12.23;;;5.53;;
79616;SDS011;69097;52.132;5.422;2023-12-07T03:48:18;15.50;;;5.80;;
79616;SDS011;69097;52.132;5.422;2023-12-07T03:50:44;15.63;;;5.63;;
79616;SDS011;69097;52.132;5.422;2023-12-07T03:53:11;15.60;;;5.60;;
79616;SDS011;69097;52.132;5.422;2023-12-07T03:55:38;14.02;;;5.28;;
79616;SDS011;69097;52.132;5.422;2023-12-07T03:58:05;12.75;;;5.75;;
79616;SDS011;69097;52.132;5.422;2023-12-07T04:00:32;14.88;;;5.97;;
79616;SDS011;69097;52.132;5.422;2023-12-07T04:02:58;12.55;;;5.50;;
79616;SDS011;69097;52.132;5.422;2023-12-07T04:05:25;15.13;;;5.95;;
79616;SDS011;69097;52.132;5.422;2023-12-07T04:07:51;13.50;;;5.88;;
79616;SDS011;69097;52.132;5.422;2023-12-07T04:10:18;15.00;;;7.00;;
79616;SDS011;69097;52.132;5.422;2023-12-07T04:12:44;10.85;;;5.53;;
79616;SDS011;69097;52.132;5.422;2023-12-07T04:15:11;13.05;;;5.80;;
79616;SDS011;69097;52.132;5.422;2023-12-07T04:17:40;15.07;;;6.80;;
79616;SDS011;69097;52.132;5.422;2023-12-07T04:20:06;16.30;;;6.20;;
79616;SDS011;69097;52.132;5.422;2023-12-07T04:22:33;13.35;;;6.25;;
79616;SDS011;69097;52.132;5.422;2023-12-07T04:25:00;16.33;;;6.97;;
79616;SDS011;69097;52.132;5.422;2023-12-07T04:27:26;15.57;;;6.28;;
79616;SDS011;69097;52.132;5.422;2023-12-07T04:29:53;15.77;;;6.55;;
79616;SDS011;69097;52.132;5.422;2023-12-07T04:32:20;13.20;;;6.03;;
79616;SDS011;69097;52.132;5.422;2023-12-07T04:34:46;17.95;;;6.80;;
79616;SDS011;69097;52.132;5.422;2023-12-07T04:37:13;12.50;;;6.35;;
79616;SDS011;69097;52.132;5.422;2023-12-07T04:39:39;14.27;;;6.53;;
79616;SDS011;69097;52.132;5.422;2023-12-07T04:47:00;14.90;;;4.47;;
79616;SDS011;69097;52.132;5.422;2023-12-07T04:49:26;12.60;;;5.93;;
79616;SDS011;69097;52.132;5.422;2023-12-07T04:51:53;12.27;;;6.38;;
79616;SDS011;69097;52.132;5.422;2023-12-07T04:54:19;15.60;;;5.93;;
79616;SDS011;69097;52.132;5.422;2023-12-07T04:56:46;12.15;;;5.90;;
79616;SDS011;69097;52.132;5.422;2023-12-07T04:59:13;13.57;;;5.72;;
79616;SDS011;69097;52.132;5.422;2023-12-07T05:01:39;14.68;;;6.45;;
79616;SDS011;69097;52.132;5.422;2023-12-07T05:04:06;13.23;;;5.75;;
79616;SDS011;69097;52.132;5.422;2023-12-07T05:06:34;16.27;;;5.47;;
79616;SDS011;69097;52.132;5.422;2023-12-07T05:09:01;11.95;;;5.38;;
79616;SDS011;69097;52.132;5.422;2023-12-07T05:11:27;10.07;;;5.43;;
79616;SDS011;69097;52.132;5.422;2023-12-07T05:13:54;13.95;;;5.22;;
79616;SDS011;69097;52.132;5.422;2023-12-07T05:16:20;12.23;;;4.93;;
79616;SDS011;69097;52.132;5.422;2023-12-07T05:18:47;12.23;;;5.43;;
79616;SDS011;69097;52.132;5.422;2023-12-07T05:21:13;10.75;;;5.38;;
79616;SDS011;69097;52.132;5.422;2023-12-07T05:23:40;12.32;;;5.65;;
79616;SDS011;69097;52.132;5.422;2023-12-07T05:26:06;19.23;;;5.88;;
79616;SDS011;69097;52.132;5.422;2023-12-07T05:28:35;12.95;;;4.75;;
79616;SDS011;69097;52.132;5.422;2023-12-07T05:31:02;10.02;;;4.90;;
79616;SDS011;69097;52.132;5.422;2023-12-07T05:33:29;13.73;;;5.50;;
79616;SDS011;69097;52.132;5.422;2023-12-07T05:35:55;10.13;;;5.38;;
79616;SDS011;69097;52.132;5.422;2023-12-07T05:38:22;10.68;;;5.47;;
79616;SDS011;69097;52.132;5.422;2023-12-07T05:40:48;10.85;;;5.68;;
79616;SDS011;69097;52.132;5.422;2023-12-07T05:43:15;10.10;;;6.15;;
79616;SDS011;69097;52.132;5.422;2023-12-07T05:45:44;9.95;;;5.00;;
79616;SDS011;69097;52.132;5.422;2023-12-07T05:48:11;14.73;;;5.53;;
79616;SDS011;69097;52.132;5.422;2023-12-07T05:50:38;30.10;;;6.43;;
79616;SDS011;69097;52.132;5.422;2023-12-07T05:55:32;10.05;;;5.28;;
79616;SDS011;69097;52.132;5.422;2023-12-07T05:57:59;22.27;;;5.60;;
79616;SDS011;69097;52.132;5.422;2023-12-07T06:00:26;14.18;;;5.57;;
79616;SDS011;69097;52.132;5.422;2023-12-07T06:02:52;11.63;;;5.88;;
79616;SDS011;69097;52.132;5.422;2023-12-07T06:05:19;12.75;;;6.45;;
79616;SDS011;69097;52.132;5.422;2023-12-07T06:07:45;14.40;;;5.97;;
79616;SDS011;69097;52.132;5.422;2023-12-07T06:10:12;14.68;;;5.80;;
79616;SDS011;69097;52.132;5.422;2023-12-07T06:12:39;18.33;;;6.22;;
79616;SDS011;69097;52.132;5.422;2023-12-07T06:15:05;11.63;;;5.80;;
79616;SDS011;69097;52.132;5.422;2023-12-07T06:17:33;12.23;;;6.18;;
79616;SDS011;69097;52.132;5.422;2023-12-07T06:20:00;11.30;;;5.70;;
79616;SDS011;69097;52.132;5.422;2023-12-07T06:22:26;12.18;;;5.75;;
79616;SDS011;69097;52.132;5.422;2023-12-07T06:24:53;13.95;;;6.15;;
79616;SDS011;69097;52.132;5.422;2023-12-07T06:27:20;20.75;;;6.53;;
79616;SDS011;69097;52.132;5.422;2023-12-07T06:29:46;13.90;;;6.10;;
79616;SDS011;69097;52.132;5.422;2023-12-07T06:32:14;15.98;;;7.45;;
79616;SDS011;69097;52.132;5.422;2023-12-07T06:34:41;19.45;;;6.35;;
79616;SDS011;69097;52.132;5.422;2023-12-07T06:37:08;14.82;;;5.90;;
79616;SDS011;69097;52.132;5.422;2023-12-07T06:39:36;13.68;;;6.47;;
79616;SDS011;69097;52.132;5.422;2023-12-07T06:42:03;11.95;;;6.05;;
79616;SDS011;69097;52.132;5.422;2023-12-07T06:44:30;25.33;;;6.85;;
79616;SDS011;69097;52.132;5.422;2023-12-07T06:46:56;14.05;;;6.55;;
79616;SDS011;69097;52.132;5.422;2023-12-07T06:49:22;13.80;;;6.85;;
79616;SDS011;69097;52.132;5.422;2023-12-07T06:52:00;13.73;;;6.97;;
79616;SDS011;69097;52.132;5.422;2023-12-07T06:54:26;12.98;;;5.68;;
79616;SDS011;69097;52.132;5.422;2023-12-07T06:56:52;21.67;;;6.63;;
79616;SDS011;69097;52.132;5.422;2023-12-07T06:59:19;15.60;;;6.88;;
79616;SDS011;69097;52.132;5.422;2023-12-07T07:01:46;11.32;;;6.13;;
79616;SDS011;69097;52.132;5.422;2023-12-07T07:04:13;16.50;;;7.25;;
79616;SDS011;69097;52.132;5.422;2023-12-07T07:06:39;12.02;;;6.43;;
79616;SDS011;69097;52.132;5.422;2023-12-07T07:11:33;21.10;;;5.15;;
79616;SDS011;69097;52.132;5.422;2023-12-07T07:14:00;13.88;;;6.40;;
79616;SDS011;69097;52.132;5.422;2023-12-07T07:16:27;15.77;;;6.22;;
79616;SDS011;69097;52.132;5.422;2023-12-07T07:18:54;15.50;;;7.40;;
79616;SDS011;69097;52.132;5.422;2023-12-07T07:21:20;13.43;;;6.40;;
79616;SDS011;69097;52.132;5.422;2023-12-07T07:23:47;26.48;;;7.75;;
79616;SDS011;69097;52.132;5.422;2023-12-07T07:26:14;14.32;;;6.47;;
79616;SDS011;69097;52.132;5.422;2023-12-07T07:28:43;17.77;;;6.53;;
79616;SDS011;69097;52.132;5.422;2023-12-07T07:31:10;17.40;;;7.68;;
79616;SDS011;69097;52.132;5.422;2023-12-07T07:33:37;13.23;;;6.65;;
79616;SDS011;69097;52.132;5.422;2023-12-07T07:36:04;15.18;;;7.30;;
79616;SDS011;69097;52.132;5.422;2023-12-07T07:38:30;13.77;;;6.65;;
79616;SDS011;69097;52.132;5.422;2023-12-07T07:40:57;15.52;;;6.40;;
79616;SDS011;69097;52.132;5.422;2023-12-07T07:43:23;12.52;;;7.25;;
79616;SDS011;69097;52.132;5.422;2023-12-07T07:45:50;16.63;;;7.40;;
79616;SDS011;69097;52.132;5.422;2023-12-07T07:48:16;27.73;;;7.05;;
79616;SDS011;69097;52.132;5.422;2023-12-07T07:50:43;13.32;;;6.75;;
79616;SDS011;69097;52.132;5.422;2023-12-07T07:53:09;17.05;;;6.47;;
79616;SDS011;69097;52.132;5.422;2023-12-07T07:55:36;16.40;;;7.05;;
79616;SDS011;69097;52.132;5.422;2023-12-07T07:58:02;14.77;;;6.20;;
79616;SDS011;69097;52.132;5.422;2023-12-07T08:00:29;13.50;;;6.15;;
79616;SDS011;69097;52.132;5.422;2023-12-07T08:02:57;9.95;;;5.35;;
79616;SDS011;69097;52.132;5.422;2023-12-07T08:05:23;18.00;;;6.10;;
79616;SDS011;69097;52.132;5.422;2023-12-07T08:07:50;13.05;;;6.28;;
79616;SDS011;69097;52.132;5.422;2023-12-07T08:10:17;21.13;;;6.25;;
79616;SDS011;69097;52.132;5.422;2023-12-07T08:12:44;17.13;;;6.05;;
79616;SDS011;69097;52.132;5.422;2023-12-07T08:15:10;19.42;;;6.28;;
79616;SDS011;69097;52.132;5.422;2023-12-07T08:17:38;13.30;;;5.43;;
79616;SDS011;69097;52.132;5.422;2023-12-07T08:20:08;17.42;;;5.97;;
79616;SDS011;69097;52.132;5.422;2023-12-07T08:22:42;12.50;;;6.40;;
79616;SDS011;69097;52.132;5.422;2023-12-07T08:25:10;13.65;;;6.22;;
79616;SDS011;69097;52.132;5.422;2023-12-07T08:27:38;13.63;;;6.97;;
79616;SDS011;69097;52.132;5.422;2023-12-07T08:30:05;18.95;;;6.75;;
79616;SDS011;69097;52.132;5.422;2023-12-07T08:32:32;20.52;;;7.10;;
79616;SDS011;69097;52.132;5.422;2023-12-07T08:34:58;16.45;;;7.22;;
79616;SDS011;69097;52.132;5.422;2023-12-07T08:37:25;16.48;;;7.72;;
79616;SDS011;69097;52.132;5.422;2023-12-07T08:39:52;14.90;;;7.53;;
79616;SDS011;69097;52.132;5.422;2023-12-07T08:42:18;14.75;;;6.50;;
79616;SDS011;69097;52.132;5.422;2023-12-07T08:44:45;13.20;;;6.93;;
79616;SDS011;69097;52.132;5.422;2023-12-07T08:47:11;15.52;;;5.68;;
79616;SDS011;69097;52.132;5.422;2023-12-07T08:49:40;13.88;;;6.57;;
79616;SDS011;69097;52.132;5.422;2023-12-07T08:52:07;17.85;;;6.80;;
79616;SDS011;69097;52.132;5.422;2023-12-07T08:54:53;16.30;;;6.47;;
79616;SDS011;69097;52.132;5.422;2023-12-07T08:57:20;14.88;;;7.18;;
79616;SDS011;69097;52.132;5.422;2023-12-07T08:59:47;20.58;;;6.38;;
79616;SDS011;69097;52.132;5.422;2023-12-07T09:02:14;19.77;;;7.72;;
79616;SDS011;69097;52.132;5.422;2023-12-07T09:04:48;18.08;;;6.72;;
79616;SDS011;69097;52.132;5.422;2023-12-07T09:07:17;14.63;;;7.18;;
79616;SDS011;69097;52.132;5.422;2023-12-07T09:09:44;18.98;;;6.50;;
79616;SDS011;69097;52.132;5.422;2023-12-07T09:12:13;17.00;;;6.90;;
79616;SDS011;69097;52.132;5.422;2023-12-07T09:14:45;17.25;;;7.68;;
79616;SDS011;69097;52.132;5.422;2023-12-07T09:17:12;18.27;;;7.38;;
79616;SDS011;69097;52.132;5.422;2023-12-07T09:19:38;15.43;;;6.85;;
79616;SDS011;69097;52.132;5.422;2023-12-07T09:22:05;17.90;;;6.65;;
79616;SDS011;69097;52.132;5.422;2023-12-07T09:24:31;21.95;;;6.50;;
79616;SDS011;69097;52.132;5.422;2023-12-07T09:26:58;19.88;;;6.95;;
79616;SDS011;69097;52.132;5.422;2023-12-07T09:29:25;22.50;;;6.95;;
79616;SDS011;69097;52.132;5.422;2023-12-07T09:31:51;14.88;;;7.05;;
79616;SDS011;69097;52.132;5.422;2023-12-07T09:34:18;21.98;;;8.43;;
79616;SDS011;69097;52.132;5.422;2023-12-07T09:36:45;23.95;;;7.78;;
79616;SDS011;69097;52.132;5.422;2023-12-07T09:39:12;14.70;;;6.75;;
79616;SDS011;69097;52.132;5.422;2023-12-07T09:41:39;23.02;;;7.65;;
79616;SDS011;69097;52.132;5.422;2023-12-07T09:44:08;17.23;;;7.22;;
79616;SDS011;69097;52.132;5.422;2023-12-07T09:46:34;18.58;;;7.25;;
79616;SDS011;69097;52.132;5.422;2023-12-07T09:49:01;15.13;;;7.18;;
79616;SDS011;69097;52.132;5.422;2023-12-07T09:51:28;23.70;;;6.22;;
79616;SDS011;69097;52.132;5.422;2023-12-07T09:53:57;13.82;;;5.32;;
79616;SDS011;69097;52.132;5.422;2023-12-07T09:56:25;11.68;;;5.18;;
79616;SDS011;69097;52.132;5.422;2023-12-07T09:58:52;12.65;;;5.07;;
79616;SDS011;69097;52.132;5.422;2023-12-07T10:01:19;14.60;;;4.72;;
79616;SDS011;69097;52.132;5.422;2023-12-07T10:04:16;10.07;;;4.15;;
79616;SDS011;69097;52.132;5.422;2023-12-07T10:06:52;10.65;;;4.97;;
79616;SDS011;69097;52.132;5.422;2023-12-07T10:09:20;10.50;;;3.55;;
79616;SDS011;69097;52.132;5.422;2023-12-07T10:12:03;10.65;;;4.38;;
79616;SDS011;69097;52.132;5.422;2023-12-07T10:14:31;12.30;;;4.85;;
79616;SDS011;69097;52.132;5.422;2023-12-07T10:16:59;10.85;;;4.45;;
79616;SDS011;69097;52.132;5.422;2023-12-07T10:19:26;10.13;;;3.58;;
79616;SDS011;69097;52.132;5.422;2023-12-07T10:21:58;10.55;;;4.22;;
79616;SDS011;69097;52.132;5.422;2023-12-07T10:24:26;10.45;;;4.22;;
79616;SDS011;69097;52.132;5.422;2023-12-07T10:26:53;9.88;;;4.05;;
79616;SDS011;69097;52.132;5.422;2023-12-07T10:29:29;10.00;;;4.65;;
79616;SDS011;69097;52.132;5.422;2023-12-07T10:31:59;12.60;;;3.70;;
79616;SDS011;69097;52.132;5.422;2023-12-07T10:34:29;10.95;;;4.30;;
79616;SDS011;69097;52.132;5.422;2023-12-07T10:36:55;12.50;;;5.20;;
79616;SDS011;69097;52.132;5.422;2023-12-07T10:39:24;10.60;;;4.55;;
79616;SDS011;69097;52.132;5.422;2023-12-07T10:42:01;11.07;;;4.47;;
79616;SDS011;69097;52.132;5.422;2023-12-07T10:44:28;9.50;;;3.72;;
79616;SDS011;69097;52.132;5.422;2023-12-07T10:46:55;12.85;;;3.95;;
79616;SDS011;69097;52.132;5.422;2023-12-07T10:49:24;11.32;;;4.22;;
79616;SDS011;69097;52.132;5.422;2023-12-07T10:52:00;9.88;;;4.35;;
79616;SDS011;69097;52.132;5.422;2023-12-07T10:54:39;11.18;;;4.70;;
79616;SDS011;69097;52.132;5.422;2023-12-07T10:57:16;9.70;;;4.47;;
79616;SDS011;69097;52.132;5.422;2023-12-07T10:59:46;11.57;;;4.72;;
79616;SDS011;69097;52.132;5.422;2023-12-07T11:02:17;9.20;;;4.43;;
79616;SDS011;69097;52.132;5.422;2023-12-07T11:04:47;12.23;;;4.68;;
79616;SDS011;69097;52.132;5.422;2023-12-07T11:07:16;10.68;;;4.53;;
79616;SDS011;69097;52.132;5.422;2023-12-07T11:09:47;12.88;;;4.53;;
79616;SDS011;69097;52.132;5.422;2023-12-07T11:12:43;13.80;;;4.55;;
79616;SDS011;69097;52.132;5.422;2023-12-07T11:15:15;15.27;;;4.38;;
79616;SDS011;69097;52.132;5.422;2023-12-07T11:17:49;11.07;;;3.88;;
79616;SDS011;69097;52.132;5.422;2023-12-07T11:20:21;11.60;;;4.40;;
79616;SDS011;69097;52.132;5.422;2023-12-07T11:22:57;11.18;;;4.30;;
79616;SDS011;69097;52.132;5.422;2023-12-07T11:25:27;12.38;;;4.40;;
79616;SDS011;69097;52.132;5.422;2023-12-07T11:28:02;12.43;;;4.43;;
79616;SDS011;69097;52.132;5.422;2023-12-07T11:30:32;11.05;;;4.20;;
79616;SDS011;69097;52.132;5.422;2023-12-07T11:33:04;11.27;;;4.15;;
79616;SDS011;69097;52.132;5.422;2023-12-07T11:35:32;13.23;;;4.38;;
79616;SDS011;69097;52.132;5.422;2023-12-07T11:38:03;11.55;;;4.50;;
79616;SDS011;69097;52.132;5.422;2023-12-07T11:40:41;10.20;;;4.03;;
79616;SDS011;69097;52.132;5.422;2023-12-07T11:43:18;11.35;;;4.70;;
79616;SDS011;69097;52.132;5.422;2023-12-07T11:45:56;12.65;;;4.28;;
79616;SDS011;69097;52.132;5.422;2023-12-07T11:48:22;10.73;;;4.32;;
79616;SDS011;69097;52.132;5.422;2023-12-07T11:50:56;14.82;;;5.20;;
79616;SDS011;69097;52.132;5.422;2023-12-07T11:53:23;14.10;;;4.82;;
79616;SDS011;69097;52.132;5.422;2023-12-07T11:55:52;12.75;;;5.07;;
79616;SDS011;69097;52.132;5.422;2023-12-07T11:58:19;14.23;;;5.35;;
79616;SDS011;69097;52.132;5.422;2023-12-07T12:00:47;14.57;;;4.97;;
79616;SDS011;69097;52.132;5.422;2023-12-07T12:03:14;13.45;;;5.43;;
79616;SDS011;69097;52.132;5.422;2023-12-07T12:05:41;15.55;;;5.38;;
79616;SDS011;69097;52.132;5.422;2023-12-07T12:08:09;13.77;;;5.28;;
79616;SDS011;69097;52.132;5.422;2023-12-07T12:10:40;15.48;;;5.95;;
79616;SDS011;69097;52.132;5.422;2023-12-07T12:13:09;14.77;;;4.82;;
79616;SDS011;69097;52.132;5.422;2023-12-07T12:15:37;15.02;;;5.40;;
79616;SDS011;69097;52.132;5.422;2023-12-07T12:18:05;15.27;;;6.07;;
79616;SDS011;69097;52.132;5.422;2023-12-07T12:20:33;18.25;;;6.28;;
79616;SDS011;69097;52.132;5.422;2023-12-07T12:23:00;17.85;;;6.22;;
79616;SDS011;69097;52.132;5.422;2023-12-07T12:25:28;17.75;;;5.25;;
79616;SDS011;69097;52.132;5.422;2023-12-07T12:28:03;19.95;;;6.45;;
79616;SDS011;69097;52.132;5.422;2023-12-07T12:30:31;19.65;;;6.22;;
79616;SDS011;69097;52.132;5.422;2023-12-07T12:35:26;16.83;;;6.10;;
79616;SDS011;69097;52.132;5.422;2023-12-07T12:37:53;18.10;;;6.53;;
79616;SDS011;69097;52.132;5.422;2023-12-07T12:40:22;18.25;;;6.82;;
79616;SDS011;69097;52.132;5.422;2023-12-07T12:42:50;20.25;;;7.47;;
79616;SDS011;69097;52.132;5.422;2023-12-07T12:45:21;16.85;;;6.10;;
79616;SDS011;69097;52.132;5.422;2023-12-07T12:47:48;18.92;;;7.00;;
79616;SDS011;69097;52.132;5.422;2023-12-07T12:53:03;17.40;;;6.95;;
79616;SDS011;69097;52.132;5.422;2023-12-07T12:55:38;21.77;;;7.43;;
79616;SDS011;69097;52.132;5.422;2023-12-07T12:58:06;18.33;;;7.50;;
79616;SDS011;69097;52.132;5.422;2023-12-07T13:00:34;18.27;;;7.00;;
79616;SDS011;69097;52.132;5.422;2023-12-07T13:03:05;17.15;;;6.97;;
79616;SDS011;69097;52.132;5.422;2023-12-07T13:05:32;19.27;;;7.03;;
79616;SDS011;69097;52.132;5.422;2023-12-07T13:08:01;18.98;;;7.20;;
79616;SDS011;69097;52.132;5.422;2023-12-07T13:10:40;18.20;;;7.38;;
79616;SDS011;69097;52.132;5.422;2023-12-07T13:13:07;18.67;;;7.45;;
79616;SDS011;69097;52.132;5.422;2023-12-07T13:15:33;21.02;;;8.15;;
79616;SDS011;69097;52.132;5.422;2023-12-07T13:18:00;21.67;;;9.13;;
79616;SDS011;69097;52.132;5.422;2023-12-07T13:20:31;20.42;;;8.68;;
79616;SDS011;69097;52.132;5.422;2023-12-07T13:23:15;20.77;;;8.70;;
79616;SDS011;69097;52.132;5.422;2023-12-07T13:25:41;20.92;;;9.32;;
79616;SDS011;69097;52.132;5.422;2023-12-07T13:28:08;20.17;;;8.85;;
79616;SDS011;69097;52.132;5.422;2023-12-07T13:30:35;18.27;;;7.80;;
79616;SDS011;69097;52.132;5.422;2023-12-07T13:33:02;22.17;;;8.55;;
79616;SDS011;69097;52.132;5.422;2023-12-07T13:35:47;22.05;;;8.55;;
79616;SDS011;69097;52.132;5.422;2023-12-07T13:38:14;21.58;;;7.95;;
79616;SDS011;69097;52.132;5.422;2023-12-07T13:40:40;21.20;;;8.23;;
79616;SDS011;69097;52.132;5.422;2023-12-07T13:43:11;23.27;;;8.52;;
79616;SDS011;69097;52.132;5.422;2023-12-07T13:45:38;20.65;;;8.02;;
79616;SDS011;69097;52.132;5.422;2023-12-07T13:48:07;19.85;;;8.18;;
79616;SDS011;69097;52.132;5.422;2023-12-07T13:50:36;22.90;;;9.02;;
79616;SDS011;69097;52.132;5.422;2023-12-07T13:53:03;24.60;;;8.75;;
79616;SDS011;69097;52.132;5.422;2023-12-07T13:55:29;17.38;;;5.60;;
79616;SDS011;69097;52.132;5.422;2023-12-07T13:57:56;23.80;;;8.68;;
79616;SDS011;69097;52.132;5.422;2023-12-07T14:00:23;21.20;;;7.75;;
79616;SDS011;69097;52.132;5.422;2023-12-07T14:02:50;14.57;;;6.57;;
79616;SDS011;69097;52.132;5.422;2023-12-07T14:05:16;15.93;;;5.80;;
79616;SDS011;69097;52.132;5.422;2023-12-07T14:07:48;23.70;;;9.32;;
79616;SDS011;69097;52.132;5.422;2023-12-07T14:10:14;24.25;;;9.45;;
79616;SDS011;69097;52.132;5.422;2023-12-07T14:12:42;22.20;;;9.73;;
79616;SDS011;69097;52.132;5.422;2023-12-07T14:15:10;25.60;;;9.32;;
79616;SDS011;69097;52.132;5.422;2023-12-07T14:17:37;20.70;;;8.95;;
79616;SDS011;69097;52.132;5.422;2023-12-07T14:20:16;22.23;;;9.50;;
79616;SDS011;69097;52.132;5.422;2023-12-07T14:23:02;22.98;;;9.23;;
79616;SDS011;69097;52.132;5.422;2023-12-07T14:25:31;22.65;;;10.25;;
79616;SDS011;69097;52.132;5.422;2023-12-07T14:27:58;23.13;;;10.75;;
79616;SDS011;69097;52.132;5.422;2023-12-07T14:30:24;25.40;;;9.70;;
79616;SDS011;69097;52.132;5.422;2023-12-07T14:32:51;23.52;;;8.88;;
79616;SDS011;69097;52.132;5.422;2023-12-07T14:35:20;22.05;;;9.27;;
79616;SDS011;69097;52.132;5.422;2023-12-07T14:37:47;19.80;;;8.65;;
79616;SDS011;69097;52.132;5.422;2023-12-07T14:40:16;23.92;;;9.32;;
79616;SDS011;69097;52.132;5.422;2023-12-07T14:42:43;26.88;;;9.52;;
79616;SDS011;69097;52.132;5.422;2023-12-07T14:45:11;25.30;;;9.98;;
79616;SDS011;69097;52.132;5.422;2023-12-07T14:47:38;27.23;;;10.27;;
79616;SDS011;69097;52.132;5.422;2023-12-07T14:50:05;23.80;;;10.18;;
79616;SDS011;69097;52.132;5.422;2023-12-07T14:52:32;23.20;;;8.80;;
79616;SDS011;69097;52.132;5.422;2023-12-07T14:54:58;26.65;;;10.60;;
79616;SDS011;69097;52.132;5.422;2023-12-07T14:57:25;22.20;;;9.05;;
79616;SDS011;69097;52.132;5.422;2023-12-07T14:59:51;24.85;;;9.35;;
79616;SDS011;69097;52.132;5.422;2023-12-07T15:02:20;27.00;;;9.82;;
79616;SDS011;69097;52.132;5.422;2023-12-07T15:04:47;27.38;;;10.40;;